Time;durP1;ratioP1;P1;durP2;ratioP2;P2;SDS_P1;SDS_P2;PMS_P1;PMS_P2;Temp;Humidity;BMP_temperature;BMP_pressure;BME280_temperature;BME280_humidity;BME280_pressure;Samples;Min_cycle;Max_cycle;Signal;HPM_P1;HPM_P2
2021/09/06 00:00:31;;;;;;;47.75;26.90;;;15.20;99.90;;;;;;7412764;19;20003;-96
2021/09/06 00:03:03;;;;;;;;;;;15.20;99.90;;;;;;7414523;19;20079;-96
2021/09/06 00:05:33;;;;;;;44.00;26.05;;;15.30;99.90;;;;;;7422190;19;19955;-96
2021/09/06 00:08:03;;;;;;;50.40;27.88;;;15.30;99.90;;;;;;7412333;19;20048;-94
2021/09/06 00:10:43;;;;;;;46.90;27.88;;;15.40;99.90;;;;;;7421393;19;20014;-96
2021/09/06 00:13:17;;;;;;;48.13;26.33;;;15.30;99.90;;;;;;7434934;19;20022;-95
2021/09/06 00:15:51;;;;;;;53.22;28.05;;;15.30;99.90;;;;;;7418547;19;20002;-96
2021/09/06 00:18:25;;;;;;;51.88;29.40;;;15.30;99.90;;;;;;7409464;19;20048;-96
2021/09/06 00:21:01;;;;;;;50.30;28.25;;;15.20;99.90;;;;;;7407597;19;20003;-96
2021/09/06 00:23:33;;;;;;;57.75;28.35;;;15.00;99.90;;;;;;7405610;19;20044;-96
2021/09/06 00:26:08;;;;;;;50.88;28.80;;;15.00;99.90;;;;;;7408744;19;20011;-96
2021/09/06 00:28:37;;;;;;;50.25;29.23;;;14.90;99.90;;;;;;7405605;19;20040;-96
2021/09/06 00:31:14;;;;;;;54.45;30.13;;;14.90;99.90;;;;;;7405874;19;20018;-95
2021/09/06 00:33:47;;;;;;;52.92;28.65;;;15.00;99.90;;;;;;7407690;19;20017;-96
2021/09/06 00:36:19;;;;;;;51.72;31.02;;;14.90;99.90;;;;;;7407910;19;20026;-94
2021/09/06 00:38:50;;;;;;;59.20;31.40;;;14.90;99.90;;;;;;7421235;19;20013;-96
2021/09/06 00:44:31;;;;;;;55.47;29.77;;;14.80;99.90;;;;;;7430207;19;20007;-95
2021/09/06 00:47:05;;;;;;;61.10;32.00;;;14.70;99.90;;;;;;7425778;19;20018;-96
2021/09/06 00:49:37;;;;;;;62.58;33.10;;;14.60;99.90;;;;;;7427812;19;20002;-96
2021/09/06 00:52:07;;;;;;;60.20;33.92;;;14.70;99.90;;;;;;7431702;19;20050;-95
2021/09/06 00:54:42;;;;;;;63.17;32.75;;;14.60;99.90;;;;;;7409301;19;20098;-96
2021/09/06 00:57:25;;;;;;;62.10;34.95;;;14.60;99.90;;;;;;7403613;19;20424;-95
2021/09/06 00:59:58;;;;;;;60.67;33.63;;;14.50;99.90;;;;;;7402857;19;20011;-96
2021/09/06 01:02:31;;;;;;;61.22;34.15;;;14.50;99.90;;;;;;7406358;19;20014;-96
2021/09/06 01:05:00;;;;;;;60.90;32.25;;;14.50;99.90;;;;;;7412407;19;20015;-96
2021/09/06 01:08:00;;;;;;;60.25;33.05;;;14.40;99.90;;;;;;7402532;19;20007;-96
2021/09/06 01:10:48;;;;;;;61.65;32.75;;;14.40;99.90;;;;;;7416672;19;20044;-94
2021/09/06 01:13:34;;;;;;;55.10;32.00;;;14.30;99.90;;;;;;7416423;19;20022;-95
2021/09/06 01:16:09;;;;;;;58.13;31.70;;;14.30;99.90;;;;;;7405628;19;20010;-95
2021/09/06 01:18:49;;;;;;;56.95;30.98;;;14.40;99.90;;;;;;7404388;19;19999;-95
2021/09/06 01:21:22;;;;;;;56.28;32.85;;;14.40;99.90;;;;;;7411518;19;20046;-95
2021/09/06 01:24:29;;;;;;;59.38;32.20;;;14.50;99.90;;;;;;7419146;19;20034;-96
2021/09/06 01:27:14;;;;;;;55.75;32.35;;;14.40;99.90;;;;;;7418110;19;20035;-95
2021/09/06 01:29:45;;;;;;;57.95;32.80;;;14.30;99.90;;;;;;7409773;19;20014;-95
2021/09/06 01:32:19;;;;;;;58.17;32.85;;;14.30;99.90;;;;;;7417868;19;20014;-95
2021/09/06 01:34:51;;;;;;;58.22;33.08;;;14.20;99.90;;;;;;7432125;19;20019;-95
2021/09/06 01:37:21;;;;;;;58.72;32.30;;;14.20;99.90;;;;;;7419025;19;20351;-96
2021/09/06 01:39:57;;;;;;;59.22;32.53;;;14.20;99.90;;;;;;7421579;19;20010;-96
2021/09/06 01:42:31;;;;;;;51.10;31.25;;;14.30;99.90;;;;;;7403157;19;20006;-96
2021/09/06 01:45:06;;;;;;;54.22;31.67;;;14.10;99.90;;;;;;7401917;19;20022;-96
2021/09/06 01:47:39;;;;;;;58.65;32.95;;;14.00;99.90;;;;;;7402038;19;20023;-96
2021/09/06 01:50:10;;;;;;;52.50;31.83;;;14.10;99.90;;;;;;7401575;19;20003;-96
2021/09/06 01:52:55;;;;;;;56.83;31.23;;;14.10;99.90;;;;;;7413845;19;20011;-96
2021/09/06 01:55:26;;;;;;;56.30;32.45;;;13.80;99.90;;;;;;7402030;19;20030;-96
2021/09/06 01:58:04;;;;;;;60.42;32.75;;;13.90;99.90;;;;;;7405276;19;20024;-96
2021/09/06 02:00:36;;;;;;;55.40;31.20;;;14.00;99.90;;;;;;7402546;19;20017;-95
2021/09/06 02:03:12;;;;;;;53.90;31.40;;;14.10;99.90;;;;;;7405347;19;20087;-96
2021/09/06 02:05:50;;;;;;;52.92;30.77;;;14.10;99.90;;;;;;7400881;19;20006;-96
2021/09/06 02:08:29;;;;;;;53.42;30.73;;;14.10;99.90;;;;;;7423743;19;20042;-96
2021/09/06 02:11:03;;;;;;;57.70;30.83;;;14.10;99.90;;;;;;7405512;19;20010;-96
2021/09/06 02:13:38;;;;;;;56.15;30.77;;;14.10;99.90;;;;;;7401375;19;20036;-96
2021/09/06 02:16:11;;;;;;;55.15;30.45;;;14.10;99.90;;;;;;7399938;19;20002;-96
2021/09/06 02:18:44;;;;;;;56.85;32.63;;;14.00;99.90;;;;;;7402703;19;20038;-95
2021/09/06 02:21:14;;;;;;;57.70;31.77;;;13.90;99.90;;;;;;7406736;19;20014;-96
2021/09/06 02:23:51;;;;;;;55.92;30.88;;;13.80;99.90;;;;;;7401642;19;20010;-96
2021/09/06 02:26:20;;;;;;;52.30;30.45;;;13.80;99.90;;;;;;7401057;19;20010;-96
2021/09/06 02:28:54;;;;;;;56.38;31.98;;;13.70;99.90;;;;;;7400310;19;20011;-96
2021/09/06 02:31:25;;;;;;;52.88;30.35;;;13.60;99.90;;;;;;7403874;19;20010;-96
2021/09/06 02:34:14;;;;;;;57.55;30.27;;;13.50;99.90;;;;;;7406720;19;20281;-96
2021/09/06 02:36:49;;;;;;;52.45;29.95;;;13.30;99.90;;;;;;7417990;19;20006;-95
2021/09/06 02:39:19;;;;;;;55.60;29.90;;;13.20;99.90;;;;;;7422002;19;20025;-96
2021/09/06 02:41:49;;;;;;;57.70;30.45;;;13.20;99.90;;;;;;7403678;19;19999;-95
2021/09/06 02:44:21;;;;;;;57.58;30.63;;;13.10;99.90;;;;;;7402831;19;20049;-95
2021/09/06 02:46:55;;;;;;;50.50;29.80;;;13.10;99.90;;;;;;7413448;19;20408;-95
2021/09/06 02:49:30;;;;;;;47.20;27.55;;;13.50;99.90;;;;;;7416474;19;20018;-93
2021/09/06 02:52:01;;;;;;;52.15;29.13;;;13.70;99.90;;;;;;7417426;19;20007;-96
2021/09/06 02:54:32;;;;;;;51.42;29.67;;;13.60;99.90;;;;;;7416259;19;20010;-95
2021/09/06 02:57:05;;;;;;;48.15;27.42;;;13.70;99.90;;;;;;7419622;19;20011;-95
2021/09/06 02:59:41;;;;;;;46.22;27.45;;;13.60;99.90;;;;;;7428462;19;20068;-95
2021/09/06 03:02:13;;;;;;;44.85;26.50;;;13.70;99.90;;;;;;7418429;19;20022;-95
2021/09/06 03:04:44;;;;;;;46.78;26.55;;;13.60;99.90;;;;;;7427506;19;20006;-95
2021/09/06 03:07:17;;;;;;;50.63;26.73;;;13.40;99.90;;;;;;7422442;19;20043;-95
2021/09/06 03:09:49;;;;;;;52.45;27.30;;;13.20;99.90;;;;;;7415777;19;20018;-95
2021/09/06 03:12:19;;;;;;;48.22;26.52;;;13.20;99.90;;;;;;7433114;19;20018;-95
2021/09/06 03:14:53;;;;;;;45.95;26.42;;;13.10;99.90;;;;;;7438030;19;20046;-95
2021/09/06 03:17:22;;;;;;;48.38;27.90;;;13.00;99.90;;;;;;7433108;19;20014;-95
2021/09/06 03:19:53;;;;;;;53.28;26.33;;;13.00;99.90;;;;;;7428455;19;20035;-94
2021/09/06 03:22:24;;;;;;;48.33;27.00;;;13.10;99.90;;;;;;7439202;19;21104;-92
2021/09/06 03:24:56;;;;;;;48.85;27.67;;;13.10;99.90;;;;;;7434235;19;20002;-95
2021/09/06 03:27:26;;;;;;;46.28;25.75;;;13.00;99.90;;;;;;7437880;19;20006;-94
2021/09/06 03:30:01;;;;;;;46.42;25.45;;;13.00;99.90;;;;;;7431357;19;20055;-94
2021/09/06 03:32:37;;;;;;;45.13;25.98;;;13.00;99.90;;;;;;7426554;19;20014;-95
2021/09/06 03:35:20;;;;;;;46.78;26.38;;;12.90;99.90;;;;;;7429748;19;20013;-94
2021/09/06 03:37:54;;;;;;;45.90;25.77;;;12.90;99.90;;;;;;7429589;19;20027;-94
2021/09/06 03:40:27;;;;;;;46.40;26.20;;;13.20;99.90;;;;;;7418068;19;20011;-96
2021/09/06 03:43:02;;;;;;;43.20;25.42;;;13.30;99.90;;;;;;7418089;19;20007;-94
2021/09/06 03:45:38;;;;;;;41.88;24.55;;;13.20;99.90;;;;;;7418267;19;20006;-95
2021/09/06 03:48:08;;;;;;;44.13;24.95;;;13.40;99.90;;;;;;7407634;19;20018;-96
2021/09/06 03:50:40;;;;;;;44.53;25.95;;;13.40;99.90;;;;;;7404877;19;20388;-96
2021/09/06 03:53:16;;;;;;;42.78;24.88;;;13.40;99.90;;;;;;7410204;19;20010;-96
2021/09/06 03:55:48;;;;;;;50.65;25.67;;;13.50;99.90;;;;;;7405197;19;20002;-95
2021/09/06 03:58:25;;;;;;;43.97;26.92;;;13.50;99.90;;;;;;7418889;19;20014;-96
2021/09/06 04:01:00;;;;;;;43.45;25.35;;;13.40;99.90;;;;;;7422095;19;20022;-96
2021/09/06 04:03:32;;;;;;;45.13;26.10;;;13.10;99.90;;;;;;7406634;19;20014;-96
2021/09/06 04:06:11;;;;;;;42.95;24.90;;;13.20;99.90;;;;;;7405768;19;20036;-95
2021/09/06 04:08:43;;;;;;;46.28;23.92;;;13.20;99.90;;;;;;7412805;19;19998;-96
2021/09/06 04:11:18;;;;;;;44.38;24.95;;;13.30;99.90;;;;;;7409713;19;20018;-95
2021/09/06 04:13:49;;;;;;;45.35;24.73;;;13.30;99.90;;;;;;7406270;19;20011;-96
2021/09/06 04:16:29;;;;;;;45.95;24.30;;;13.20;99.90;;;;;;7413261;19;20014;-93
2021/09/06 04:19:03;;;;;;;42.17;24.33;;;13.40;99.90;;;;;;7418295;19;20009;-95
2021/09/06 04:21:36;;;;;;;43.80;24.98;;;13.30;99.90;;;;;;7414465;19;20083;-96
2021/09/06 04:24:07;;;;;;;48.50;26.35;;;13.40;99.90;;;;;;7414404;19;20014;-94
2021/09/06 04:26:45;;;;;;;51.95;27.13;;;13.40;99.90;;;;;;7412753;19;20003;-94
2021/09/06 04:29:35;;;;;;;46.47;25.80;;;13.40;99.90;;;;;;7431229;19;20003;-94
2021/09/06 04:32:54;;;;;;;47.28;26.13;;;13.40;99.90;;;;;;7422229;19;20006;-95
2021/09/06 04:35:29;;;;;;;48.13;26.70;;;13.30;99.90;;;;;;7434509;19;20034;-95
2021/09/06 04:38:02;;;;;;;49.30;27.20;;;13.20;99.90;;;;;;7419244;19;20039;-95
2021/09/06 04:40:40;;;;;;;49.72;28.10;;;13.20;99.90;;;;;;7411295;19;20427;-96
2021/09/06 04:43:13;;;;;;;42.92;26.77;;;13.10;99.90;;;;;;7408789;19;20401;-96
2021/09/06 04:45:47;;;;;;;52.75;27.30;;;13.00;99.90;;;;;;7404787;19;20010;-96
2021/09/06 04:48:24;;;;;;;46.63;26.60;;;12.90;99.90;;;;;;7405766;19;20010;-95
2021/09/06 04:50:55;;;;;;;51.85;28.70;;;12.80;99.90;;;;;;7408037;19;20003;-95
2021/09/06 04:53:27;;;;;;;46.85;26.48;;;12.90;99.90;;;;;;7406025;19;20024;-93
2021/09/06 04:56:19;;;;;;;49.50;27.58;;;13.10;99.90;;;;;;7412328;19;20107;-92
2021/09/06 04:58:55;;;;;;;46.25;26.13;;;13.20;99.90;;;;;;7409403;19;20098;-93
2021/09/06 05:01:27;;;;;;;43.67;25.58;;;13.10;99.90;;;;;;7406537;19;20011;-95
2021/09/06 05:04:09;;;;;;;50.80;27.38;;;13.10;99.90;;;;;;7410565;19;20011;-92
2021/09/06 05:06:42;;;;;;;55.15;27.40;;;13.30;99.90;;;;;;7407619;19;20036;-92
2021/09/06 05:09:34;;;;;;;49.03;28.50;;;13.30;99.90;;;;;;7418562;19;20038;-93
2021/09/06 05:12:10;;;;;;;51.33;28.35;;;13.40;99.90;;;;;;7395933;19;20017;-92
2021/09/06 05:18:44;;;;;;;53.35;27.48;;;13.30;99.90;;;;;;7399252;19;20025;-92
2021/09/06 05:28:07;;;;;;;55.40;28.58;;;13.20;99.90;;;;;;7414058;19;20029;-88
2021/09/06 05:39:54;;;;;;;54.35;26.13;;;13.10;99.90;;;;;;7353026;19;20949;-90
2021/09/06 05:42:48;;;;;;;48.22;27.08;;;13.10;99.90;;;;;;7417672;19;20293;-91
2021/09/06 05:45:41;;;;;;;;;;;;;;;;;;;;;
2021/09/06 05:48:22;;;;;;;47.67;27.52;;;13.20;99.90;;;;;;7410474;19;20010;-92
2021/09/06 05:51:18;;;;;;;51.38;28.50;;;13.30;99.90;;;;;;7430071;19;20494;-93
2021/09/06 05:54:10;;;;;;;46.90;28.58;;;13.40;99.90;;;;;;7359946;19;20021;-82
2021/09/06 05:56:57;;;;;;;50.90;26.08;;;13.30;99.90;;;;;;7357100;19;20018;-86
2021/09/06 06:20:48;;;;;;;46.10;26.90;;;13.60;99.90;;;;;;7407470;19;20011;-90
2021/09/06 06:23:43;;;;;;;49.05;27.00;;;13.60;99.90;;;;;;7427096;19;20006;-91
2021/09/06 06:26:19;;;;;;;52.58;27.33;;;13.70;99.90;;;;;;7415234;19;20078;-91
2021/09/06 06:29:20;;;;;;;49.28;25.38;;;13.80;99.90;;;;;;7430736;19;20010;-94
2021/09/06 06:32:00;;;;;;;43.08;25.83;;;13.90;99.90;;;;;;7421934;19;20023;-91
2021/09/06 06:34:55;;;;;;;56.65;27.42;;;14.00;99.90;;;;;;7426314;19;20007;-94
2021/09/06 06:37:49;;;;;;;44.03;24.70;;;14.00;99.90;;;;;;7425655;19;20015;-92
2021/09/06 06:43:37;;;;;;;43.13;24.75;;;14.00;99.90;;;;;;7395161;19;20289;-94
2021/09/06 06:46:14;;;;;;;50.28;24.67;;;14.00;99.90;;;;;;7406931;19;20019;-96
2021/09/06 06:48:47;;;;;;;46.15;24.27;;;14.20;99.90;;;;;;7402190;19;20022;-96
2021/09/06 06:51:17;;;;;;;45.83;24.63;;;14.40;99.90;;;;;;7411070;19;20015;-96
2021/09/06 06:53:53;;;;;;;45.28;24.90;;;14.60;99.90;;;;;;7404375;19;20011;-96
2021/09/06 06:56:33;;;;;;;42.08;22.38;;;14.70;99.90;;;;;;7403690;19;20010;-96
2021/09/06 06:59:08;;;;;;;40.67;22.83;;;14.80;99.90;;;;;;7409948;19;20051;-96
2021/09/06 07:01:40;;;;;;;45.30;24.45;;;14.90;99.90;;;;;;7403619;19;20524;-95
2021/09/06 07:04:10;;;;;;;48.17;24.02;;;15.00;99.90;;;;;;7400966;19;20010;-95
2021/09/06 07:06:43;;;;;;;44.83;24.15;;;15.20;99.90;;;;;;7404577;19;20391;-96
2021/09/06 07:09:16;;;;;;;44.55;23.77;;;15.30;99.90;;;;;;7404107;19;20045;-95
2021/09/06 07:11:50;;;;;;;46.83;24.75;;;15.30;99.90;;;;;;7402881;19;20444;-95
2021/09/06 07:14:20;;;;;;;41.42;22.52;;;15.30;99.90;;;;;;7400804;19;20106;-96
2021/09/06 07:16:50;;;;;;;41.80;22.95;;;15.40;99.90;;;;;;7403636;19;20014;-96
2021/09/06 07:19:31;;;;;;;39.38;22.92;;;15.30;99.90;;;;;;7403138;19;20003;-96
2021/09/06 07:22:01;;;;;;;38.22;21.48;;;15.40;99.90;;;;;;7406264;19;20007;-96
2021/09/06 07:24:37;;;;;;;44.35;23.92;;;15.50;99.90;;;;;;7403151;19;20038;-96
2021/09/06 07:27:09;;;;;;;38.78;22.10;;;15.60;99.90;;;;;;7427408;19;20011;-96
2021/09/06 07:29:43;;;;;;;45.47;23.20;;;15.60;99.90;;;;;;7426770;19;20018;-94
2021/09/06 07:32:21;;;;;;;39.45;22.00;;;15.70;99.90;;;;;;7418166;19;20006;-96
2021/09/06 07:34:52;;;;;;;39.58;22.10;;;15.70;99.90;;;;;;7420274;19;20015;-96
2021/09/06 07:37:24;;;;;;;46.60;23.63;;;15.80;99.90;;;;;;7416117;19;20025;-96
2021/09/06 07:39:57;;;;;;;43.75;23.13;;;16.00;99.90;;;;;;7411915;19;20006;-95
2021/09/06 07:42:30;;;;;;;40.10;23.23;;;16.10;99.90;;;;;;7418195;19;20010;-95
2021/09/06 07:45:02;;;;;;;38.60;23.02;;;16.20;99.90;;;;;;7418740;19;20042;-96
2021/09/06 07:47:32;;;;;;;40.67;21.25;;;16.30;99.90;;;;;;7413268;19;20003;-96
2021/09/06 07:50:06;;;;;;;42.78;23.10;;;16.50;99.90;;;;;;7408727;19;20014;-96
2021/09/06 07:52:36;;;;;;;36.65;21.67;;;16.70;99.90;;;;;;7412029;19;20424;-95
2021/09/06 07:55:12;;;;;;;41.90;21.70;;;16.80;99.90;;;;;;7423943;19;20015;-95
2021/09/06 07:57:44;;;;;;;41.78;22.38;;;16.70;99.90;;;;;;7423456;19;20045;-96
2021/09/06 08:00:18;;;;;;;38.95;23.05;;;16.80;99.90;;;;;;7408605;19;20034;-95
2021/09/06 08:02:52;;;;;;;40.40;20.30;;;16.80;99.90;;;;;;7406544;19;20011;-94
2021/09/06 08:05:30;;;;;;;33.88;20.42;;;17.00;99.90;;;;;;7409268;19;20111;-95
2021/09/06 08:08:06;;;;;;;39.33;22.40;;;17.10;99.90;;;;;;7414684;19;20014;-93
2021/09/06 08:10:39;;;;;;;35.25;21.38;;;17.30;99.90;;;;;;7412550;19;20044;-95
2021/09/06 08:13:11;;;;;;;39.17;21.38;;;17.30;99.90;;;;;;7413973;19;20011;-93
2021/09/06 08:15:45;;;;;;;38.08;20.63;;;17.40;99.90;;;;;;7407060;19;20010;-94
2021/09/06 08:18:15;;;;;;;37.17;21.10;;;17.60;99.90;;;;;;7413321;19;20016;-93
2021/09/06 08:20:52;;;;;;;40.90;20.95;;;17.80;99.90;;;;;;7419829;19;20009;-96
2021/09/06 08:23:23;;;;;;;38.97;22.13;;;17.90;99.90;;;;;;7428888;19;20007;-93
2021/09/06 08:26:00;;;;;;;36.05;20.67;;;17.80;99.90;;;;;;7420476;19;20014;-94
2021/09/06 08:28:30;;;;;;;37.80;21.33;;;17.90;99.90;;;;;;7426588;19;20046;-93
2021/09/06 08:31:01;;;;;;;34.38;20.67;;;18.00;99.90;;;;;;7429000;19;20011;-94
2021/09/06 08:33:33;;;;;;;31.13;19.30;;;18.20;99.90;;;;;;7431817;19;20030;-94
2021/09/06 08:36:09;;;;;;;35.88;20.77;;;18.40;99.90;;;;;;7430984;19;20013;-94
2021/09/06 08:38:43;;;;;;;38.33;22.75;;;18.50;99.90;;;;;;7430564;19;20010;-95
2021/09/06 08:41:20;;;;;;;38.37;22.30;;;18.50;99.90;;;;;;7416508;19;20079;-94
2021/09/06 08:43:54;;;;;;;32.85;20.42;;;18.50;99.90;;;;;;7411947;19;20428;-92
2021/09/06 08:46:34;;;;;;;35.35;20.58;;;18.50;99.90;;;;;;7411092;19;20010;-93
2021/09/06 08:49:08;;;;;;;39.42;20.33;;;18.70;99.90;;;;;;7409672;19;20121;-93
2021/09/06 08:51:49;;;;;;;35.20;20.42;;;18.80;99.90;;;;;;7411848;19;20017;-92
2021/09/06 08:54:26;;;;;;;35.22;20.30;;;19.10;99.90;;;;;;7417252;19;20010;-92
2021/09/06 08:56:58;;;;;;;33.15;19.75;;;19.20;99.90;;;;;;7409908;19;20451;-93
2021/09/06 08:59:29;;;;;;;34.67;20.08;;;19.40;99.90;;;;;;7404886;19;20017;-94
2021/09/06 09:02:12;;;;;;;30.48;19.00;;;19.40;99.90;;;;;;7405543;19;20095;-93
2021/09/06 09:05:15;;;;;;;30.70;18.90;;;19.60;99.90;;;;;;7406422;19;20010;-94
2021/09/06 09:08:04;;;;;;;34.88;20.83;;;19.50;99.90;;;;;;7407367;19;20014;-94
2021/09/06 09:11:00;;;;;;;36.83;20.08;;;19.30;99.90;;;;;;7408410;19;20014;-92
2021/09/06 09:13:52;;;;;;;38.33;20.60;;;19.40;99.90;;;;;;7405632;19;20043;-93
2021/09/06 09:16:42;;;;;;;35.10;19.15;;;19.60;99.90;;;;;;7406327;19;20018;-93
2021/09/06 09:19:53;;;;;;;30.17;18.05;;;19.80;99.90;;;;;;7403533;19;20011;-93
2021/09/06 09:22:51;;;;;;;33.85;18.45;;;19.90;99.90;;;;;;7405070;19;20003;-92
2021/09/06 09:25:42;;;;;;;31.77;18.67;;;20.10;99.90;;;;;;7425512;19;20015;-92
2021/09/06 09:28:40;;;;;;;29.65;17.95;;;20.30;99.90;;;;;;7422032;19;20404;-94
2021/09/06 09:31:40;;;;;;;33.78;19.58;;;20.50;99.90;;;;;;7413066;19;20032;-93
2021/09/06 09:34:39;;;;;;;35.28;20.83;;;20.50;99.90;;;;;;7413305;19;20018;-94
2021/09/06 09:37:33;;;;;;;33.78;19.05;;;20.40;99.90;;;;;;7409642;19;20509;-92
2021/09/06 09:40:20;;;;;;;29.15;18.50;;;20.30;99.90;;;;;;7410165;19;20015;-92
2021/09/06 09:42:51;;;;;;;32.08;18.95;;;20.60;99.90;;;;;;7407640;19;20022;-91
2021/09/06 09:45:30;;;;;;;32.05;18.33;;;21.00;99.90;;;;;;7425272;19;20026;-92
2021/09/06 09:48:25;;;;;;;30.27;17.90;;;21.60;99.90;;;;;;7410867;19;20017;-93
2021/09/06 09:51:07;;;;;;;30.67;18.35;;;22.20;99.90;;;;;;7406819;19;20391;-92
2021/09/06 09:53:50;;;;;;;30.83;17.90;;;22.90;99.90;;;;;;7409398;19;20010;-92
2021/09/06 09:56:50;;;;;;;28.98;17.45;;;23.60;98.20;;;;;;7405140;19;20313;-92
2021/09/06 09:59:25;;;;;;;27.83;17.02;;;24.20;96.40;;;;;;7404845;19;20475;-91
2021/09/06 10:02:09;;;;;;;23.17;14.68;;;24.60;94.50;;;;;;7406920;19;20043;-92
2021/09/06 10:04:53;;;;;;;21.67;13.45;;;25.20;93.40;;;;;;7405655;19;20006;-90
2021/09/06 10:07:26;;;;;;;22.13;14.85;;;25.70;92.00;;;;;;7406338;19;20018;-91
2021/09/06 10:09:59;;;;;;;23.73;15.20;;;26.30;90.40;;;;;;7423148;19;20330;-91
2021/09/06 10:12:35;;;;;;;26.55;15.85;;;26.70;87.40;;;;;;7420720;19;20035;-91
2021/09/06 10:15:18;;;;;;;25.85;17.05;;;27.20;84.10;;;;;;7424099;19;20022;-90
2021/09/06 10:18:10;;;;;;;24.02;14.10;;;27.70;80.50;;;;;;7429811;19;20018;-91
2021/09/06 10:20:58;;;;;;;20.83;13.05;;;27.90;80.00;;;;;;7425648;19;20015;-92
2021/09/06 10:23:46;;;;;;;23.75;15.27;;;28.60;78.20;;;;;;7419805;19;20007;-91
2021/09/06 10:26:23;;;;;;;18.40;13.07;;;29.40;72.20;;;;;;7413036;19;20010;-92
2021/09/06 10:29:04;;;;;;;16.15;12.23;;;30.00;69.10;;;;;;7409447;19;20002;-91
2021/09/06 10:31:38;;;;;;;18.23;12.38;;;30.10;66.80;;;;;;7407543;19;20015;-94
2021/09/06 10:34:11;;;;;;;20.35;14.50;;;30.40;65.70;;;;;;7414856;19;20038;-91
2021/09/06 10:36:44;;;;;;;20.77;15.02;;;31.30;62.90;;;;;;7410813;19;20037;-91
2021/09/06 10:39:19;;;;;;;24.17;15.00;;;31.50;60.90;;;;;;7377364;19;20229;-90
2021/09/06 10:41:53;;;;;;;26.63;15.65;;;31.40;60.00;;;;;;7420063;19;20010;-89
2021/09/06 10:44:36;;;;;;;20.83;13.88;;;31.30;59.50;;;;;;7412634;19;20021;-92
2021/09/06 10:47:18;;;;;;;20.20;14.18;;;31.40;58.90;;;;;;7408304;19;20007;-92
2021/09/06 10:49:54;;;;;;;26.20;16.40;;;31.10;58.80;;;;;;7408786;19;20014;-92
2021/09/06 10:52:30;;;;;;;18.92;14.35;;;31.20;58.30;;;;;;7405294;19;20014;-92
2021/09/06 10:55:04;;;;;;;21.80;14.63;;;31.50;58.40;;;;;;7405725;19;20018;-91
2021/09/06 10:57:40;;;;;;;18.17;12.00;;;32.20;57.40;;;;;;7408176;19;20015;-91
2021/09/06 11:00:35;;;;;;;15.23;11.80;;;33.00;56.30;;;;;;7406653;19;20006;-92
2021/09/06 11:03:08;;;;;;;15.13;11.55;;;33.70;54.10;;;;;;7405589;19;20022;-90
2021/09/06 11:05:55;;;;;;;17.17;11.60;;;34.10;53.70;;;;;;7412863;19;20018;-92
2021/09/06 11:08:39;;;;;;;18.85;13.40;;;34.90;51.90;;;;;;7424871;19;20010;-92
2021/09/06 11:11:17;;;;;;;16.80;12.23;;;35.40;50.30;;;;;;7423157;19;20074;-90
2021/09/06 11:14:09;;;;;;;17.95;11.95;;;35.40;50.00;;;;;;7421681;19;20015;-93
2021/09/06 11:16:43;;;;;;;15.90;11.88;;;35.80;48.30;;;;;;7429634;19;20006;-92
2021/09/06 11:19:19;;;;;;;16.15;11.32;;;35.80;48.60;;;;;;7414392;19;20014;-88
2021/09/06 11:21:53;;;;;;;18.83;12.43;;;35.80;48.50;;;;;;7417169;19;20495;-91
2021/09/06 11:24:30;;;;;;;14.60;10.60;;;36.00;48.20;;;;;;7418254;19;20015;-90
2021/09/06 11:27:01;;;;;;;14.45;11.68;;;36.20;48.20;;;;;;7410646;19;20324;-89
2021/09/06 11:29:44;;;;;;;13.73;11.13;;;36.50;47.30;;;;;;7411601;19;20014;-87
2021/09/06 11:32:15;;;;;;;14.23;11.18;;;36.70;46.40;;;;;;7412408;19;20007;-87
2021/09/06 11:34:45;;;;;;;18.35;14.43;;;36.10;47.00;;;;;;7416249;19;20034;-89
2021/09/06 11:37:28;;;;;;;13.73;11.38;;;36.20;46.50;;;;;;7410818;19;20033;-89
2021/09/06 11:40:00;;;;;;;13.60;10.60;;;36.80;46.30;;;;;;7410573;19;20258;-87
2021/09/06 11:42:30;;;;;;;13.85;10.90;;;37.10;45.40;;;;;;7411281;19;20014;-89
2021/09/06 11:45:09;;;;;;;13.10;10.85;;;37.70;44.80;;;;;;7412473;19;20052;-88
2021/09/06 11:47:40;;;;;;;17.40;12.73;;;38.50;43.10;;;;;;7409034;19;20079;-88
2021/09/06 11:50:20;;;;;;;17.67;14.32;;;38.70;42.50;;;;;;7413366;19;20069;-87
2021/09/06 11:53:05;;;;;;;19.80;15.18;;;37.50;42.50;;;;;;7412941;19;20011;-88
2021/09/06 11:55:38;;;;;;;19.17;13.00;;;34.30;45.40;;;;;;7414531;19;20049;-88
2021/09/06 11:58:13;;;;;;;14.10;10.90;;;34.20;45.90;;;;;;7408013;19;20089;-87
2021/09/06 12:00:43;;;;;;;19.20;12.82;;;34.90;45.60;;;;;;7408273;19;20015;-86
2021/09/06 12:03:15;;;;;;;18.13;13.18;;;34.70;45.40;;;;;;7408053;19;20010;-85
2021/09/06 12:05:51;;;;;;;17.83;12.85;;;33.20;47.00;;;;;;7411408;19;20006;-84
2021/09/06 12:08:25;;;;;;;19.02;12.88;;;33.70;47.10;;;;;;7413869;19;20085;-86
2021/09/06 12:11:09;;;;;;;20.92;14.32;;;33.70;46.80;;;;;;7404862;19;20014;-86
2021/09/06 12:13:43;;;;;;;20.35;14.73;;;33.40;47.50;;;;;;7412840;19;20014;-86
2021/09/06 12:16:14;;;;;;;21.70;14.90;;;32.10;48.40;;;;;;7404853;19;20007;-86
2021/09/06 12:18:48;;;;;;;20.92;14.43;;;30.60;50.90;;;;;;7404792;19;20749;-85
2021/09/06 12:21:24;;;;;;;20.77;13.57;;;30.70;51.60;;;;;;7406310;19;20313;-87
2021/09/06 12:24:30;;;;;;;20.65;13.82;;;31.30;50.80;;;;;;7407553;19;20007;-85
2021/09/06 12:27:14;;;;;;;16.85;9.80;;;32.70;49.50;;;;;;7425338;19;20010;-85
2021/09/06 12:29:45;;;;;;;17.02;11.48;;;34.10;48.70;;;;;;7409296;19;20002;-88
2021/09/06 12:32:22;;;;;;;15.52;11.60;;;35.60;46.20;;;;;;7407323;19;20077;-87
2021/09/06 12:34:53;;;;;;;18.05;11.90;;;36.70;44.60;;;;;;7406797;19;20074;-89
2021/09/06 12:37:31;;;;;;;15.30;10.07;;;37.80;43.40;;;;;;7407870;19;20011;-88
2021/09/06 12:40:08;;;;;;;12.35;9.88;;;38.10;43.20;;;;;;7404250;19;20014;-88
2021/09/06 12:42:47;;;;;;;12.57;9.88;;;39.10;42.00;;;;;;7405698;19;20014;-90
2021/09/06 12:45:29;;;;;;;14.15;10.38;;;40.00;41.30;;;;;;7408314;19;20015;-86
2021/09/06 12:48:10;;;;;;;15.32;10.65;;;40.60;39.80;;;;;;7404129;19;20003;-89
2021/09/06 12:50:40;;;;;;;12.68;10.02;;;40.70;38.80;;;;;;7407313;19;20018;-86
2021/09/06 12:53:27;;;;;;;15.23;10.85;;;39.30;39.50;;;;;;7407464;19;20014;-87
2021/09/06 12:56:07;;;;;;;13.80;11.13;;;38.60;41.00;;;;;;7408285;19;20019;-88
2021/09/06 12:58:59;;;;;;;14.43;10.10;;;39.50;39.70;;;;;;7406471;19;20074;-89
2021/09/06 13:01:32;;;;;;;16.13;10.90;;;39.90;39.10;;;;;;7406081;19;20503;-89
2021/09/06 13:04:07;;;;;;;11.88;9.35;;;40.60;39.00;;;;;;7421153;19;20031;-87
2021/09/06 13:06:38;;;;;;;14.18;10.98;;;41.00;38.60;;;;;;7412934;19;20318;-89
2021/09/06 13:09:16;;;;;;;13.43;10.18;;;41.50;37.90;;;;;;7413807;19;20010;-88
2021/09/06 13:11:50;;;;;;;15.18;11.55;;;40.60;38.50;;;;;;7412111;19;20019;-89
2021/09/06 13:14:28;;;;;;;17.35;12.20;;;40.60;38.30;;;;;;7405867;19;20030;-88
2021/09/06 13:17:00;;;;;;;16.77;11.57;;;36.70;41.00;;;;;;7405820;19;20013;-88
2021/09/06 13:19:38;;;;;;;15.63;11.05;;;34.60;44.10;;;;;;7413525;19;20335;-87
2021/09/06 13:22:07;;;;;;;16.45;10.40;;;35.00;43.40;;;;;;7406808;19;20070;-88
2021/09/06 13:24:40;;;;;;;13.52;9.77;;;35.70;43.00;;;;;;7406795;19;19999;-89
2021/09/06 13:27:19;;;;;;;20.58;11.35;;;37.50;41.00;;;;;;7408847;19;19999;-87
2021/09/06 13:30:48;;;;;;;14.80;11.57;;;36.10;42.00;;;;;;7405655;19;20014;-89
2021/09/06 13:33:20;;;;;;;17.73;12.25;;;36.40;41.70;;;;;;7406786;19;20074;-87
2021/09/06 13:38:46;;;;;;;14.88;10.55;;;38.10;40.20;;;;;;7418252;19;20014;-86
2021/09/06 13:41:23;;;;;;;17.23;10.93;;;38.70;39.80;;;;;;7413840;19;20003;-87
2021/09/06 13:43:54;;;;;;;14.35;11.82;;;39.10;39.30;;;;;;7405205;19;20021;-87
2021/09/06 13:46:29;;;;;;;17.92;11.60;;;38.50;39.00;;;;;;7404331;19;20028;-86
2021/09/06 13:49:01;;;;;;;17.75;12.00;;;35.50;42.20;;;;;;7407756;19;20074;-86
2021/09/06 13:51:32;;;;;;;13.75;10.63;;;35.90;42.80;;;;;;7403988;19;20015;-87
2021/09/06 13:54:03;;;;;;;13.90;10.70;;;36.90;41.60;;;;;;7408645;19;20021;-88
2021/09/06 13:56:41;;;;;;;16.05;11.07;;;37.90;40.60;;;;;;7413430;19;20018;-87
2021/09/06 13:59:12;;;;;;;17.63;11.50;;;38.00;39.90;;;;;;7403094;19;20010;-86
2021/09/06 14:01:47;;;;;;;15.38;9.35;;;35.80;41.70;;;;;;7412853;19;20299;-88
2021/09/06 14:04:19;;;;;;;15.52;10.13;;;36.30;42.20;;;;;;7411618;19;20018;-88
2021/09/06 14:06:54;;;;;;;20.60;12.93;;;36.40;41.70;;;;;;7414838;19;20025;-89
2021/09/06 14:09:26;;;;;;;17.25;10.77;;;34.50;43.20;;;;;;7409121;19;20305;-87